createdAt,value
2022-12-04T00:01:20.126Z,4.73
2022-12-04T00:03:47.659Z,4.37
2022-12-04T00:06:19.534Z,4.47
2022-12-04T00:08:48.107Z,4.37
2022-12-04T00:11:21.338Z,4.53
2022-12-04T00:13:49.011Z,3.90
2022-12-04T00:16:19.807Z,4.43
2022-12-04T00:18:47.621Z,4.50
2022-12-04T00:21:16.313Z,4.07
2022-12-04T00:23:44.724Z,3.77
2022-12-04T00:26:15.057Z,4.10
2022-12-04T00:28:43.230Z,4.37
2022-12-04T00:31:13.640Z,4.00
2022-12-04T00:33:41.278Z,4.10
2022-12-04T00:36:11.677Z,4.07
2022-12-04T00:38:40.215Z,4.47
2022-12-04T00:41:19.662Z,3.80
2022-12-04T00:43:47.213Z,3.43
2022-12-04T00:46:15.365Z,3.83
2022-12-04T00:48:43.782Z,3.57
2022-12-04T00:51:17.021Z,4.03
2022-12-04T00:53:45.054Z,3.83
2022-12-04T00:56:18.819Z,3.87
2022-12-04T00:58:46.735Z,3.80
2022-12-04T01:01:17.264Z,3.80
2022-12-04T01:03:45.257Z,3.77
2022-12-04T01:06:33.592Z,3.70
2022-12-04T01:09:04.708Z,3.97
2022-12-04T01:11:33.065Z,3.60
2022-12-04T01:14:01.466Z,3.93
2022-12-04T01:16:35.506Z,3.70
2022-12-04T01:19:03.745Z,4.77
2022-12-04T01:21:31.018Z,4.10
2022-12-04T01:23:59.259Z,4.53
2022-12-04T01:26:27.426Z,3.83
2022-12-04T01:28:54.703Z,3.67
2022-12-04T01:31:22.723Z,3.87
2022-12-04T01:33:51.418Z,3.83
2022-12-04T01:36:21.790Z,3.47
2022-12-04T01:38:49.411Z,3.93
2022-12-04T01:41:20.804Z,4.27
2022-12-04T01:44:08.257Z,3.73
2022-12-04T01:46:35.471Z,4.17
2022-12-04T01:49:04.072Z,3.70
2022-12-04T01:51:41.901Z,3.80
2022-12-04T01:54:28.614Z,4.17
2022-12-04T01:57:04.437Z,3.93
2022-12-04T01:59:37.945Z,3.57
2022-12-04T02:02:17.706Z,3.93
2022-12-04T02:04:45.283Z,3.87
2022-12-04T02:07:12.679Z,4.17
2022-12-04T02:09:41.464Z,4.10
2022-12-04T02:12:11.437Z,3.77
2022-12-04T02:15:05.923Z,3.17
2022-12-04T02:17:42.959Z,3.53
2022-12-04T02:20:32.388Z,3.63
2022-12-04T02:23:28.626Z,3.50
2022-12-04T02:26:13.674Z,3.90
2022-12-04T02:28:53.340Z,3.60
2022-12-04T02:31:27.239Z,3.83
2022-12-04T02:34:13.436Z,4.20
2022-12-04T02:36:52.742Z,4.27
2022-12-04T02:39:41.812Z,3.83
2022-12-04T02:42:26.770Z,3.57
2022-12-04T02:45:01.671Z,3.73
2022-12-04T02:47:30.065Z,3.67
2022-12-04T02:50:01.397Z,3.83
2022-12-04T02:52:35.271Z,4.00
2022-12-04T02:55:08.802Z,3.90
2022-12-04T02:57:41.222Z,3.50
2022-12-04T03:00:09.770Z,3.73
2022-12-04T03:02:48.254Z,4.00
2022-12-04T03:05:19.469Z,4.03
2022-12-04T03:08:01.018Z,3.80
2022-12-04T03:10:40.216Z,3.90
2022-12-04T03:13:14.088Z,3.60
2022-12-04T03:15:49.477Z,3.60
2022-12-04T03:18:26.777Z,3.93
2022-12-04T03:21:06.687Z,3.30
2022-12-04T03:23:46.553Z,3.80
2022-12-04T03:26:27.364Z,3.73
2022-12-04T03:28:59.832Z,3.10
2022-12-04T03:31:40.406Z,3.70
2022-12-04T03:34:10.076Z,3.27
2022-12-04T03:36:57.481Z,3.80
2022-12-04T03:39:53.902Z,3.63
2022-12-04T03:42:28.035Z,3.20
2022-12-04T03:45:03.262Z,3.10
2022-12-04T03:47:38.875Z,3.30
2022-12-04T03:50:19.645Z,3.30
2022-12-04T03:53:13.007Z,3.77
2022-12-04T03:56:16.253Z,3.40
2022-12-04T03:58:58.105Z,3.33
2022-12-04T04:01:34.361Z,3.10
2022-12-04T04:04:05.351Z,3.07
2022-12-04T04:06:39.263Z,3.03
2022-12-04T04:09:18.188Z,3.40
2022-12-04T04:11:51.251Z,3.30
2022-12-04T04:14:42.885Z,3.27
2022-12-04T04:17:38.217Z,3.47
2022-12-04T04:20:33.904Z,3.43
2022-12-04T04:23:23.576Z,3.20
2022-12-04T04:25:53.211Z,3.10
2022-12-04T04:28:47.015Z,3.50
2022-12-04T04:31:17.071Z,3.33
2022-12-04T04:34:07.163Z,3.23
2022-12-04T04:37:13.133Z,3.67
2022-12-04T04:39:57.023Z,3.33
2022-12-04T04:42:38.754Z,3.63
2022-12-04T04:45:13.337Z,4.10
2022-12-04T04:48:02.127Z,3.77
2022-12-04T04:50:30.221Z,3.50
2022-12-04T04:53:03.716Z,3.13
2022-12-04T04:55:35.225Z,3.20
2022-12-04T04:58:16.028Z,3.70
2022-12-04T05:01:07.597Z,3.37
2022-12-04T05:03:35.486Z,3.40
2022-12-04T05:06:02.698Z,3.40
2022-12-04T05:08:29.854Z,3.53
2022-12-04T05:10:57.008Z,3.37
2022-12-04T05:13:24.551Z,3.73
2022-12-04T05:16:11.114Z,3.70
2022-12-04T05:18:38.557Z,3.50
2022-12-04T05:21:16.114Z,3.60
2022-12-04T05:23:43.502Z,3.50
2022-12-04T05:26:10.971Z,3.73
2022-12-04T05:28:39.701Z,3.47
2022-12-04T05:31:07.144Z,3.93
2022-12-04T05:33:34.594Z,3.60
2022-12-04T05:36:04.832Z,3.30
2022-12-04T05:38:32.619Z,3.67
2022-12-04T05:41:01.165Z,3.10
2022-12-04T05:43:28.481Z,3.57
2022-12-04T05:45:55.859Z,3.53
2022-12-04T05:48:23.027Z,3.83
2022-12-04T05:50:50.243Z,3.80
2022-12-04T05:53:17.616Z,3.43
2022-12-04T05:55:44.935Z,3.80
2022-12-04T05:58:12.282Z,3.90
2022-12-04T06:00:39.434Z,3.70
2022-12-04T06:03:06.844Z,3.20
2022-12-04T06:05:34.043Z,3.67
2022-12-04T06:08:01.219Z,3.47
2022-12-04T06:10:29.471Z,3.13
2022-12-04T06:12:57.894Z,3.60
2022-12-04T06:15:25.212Z,3.60
2022-12-04T06:17:52.554Z,3.30
2022-12-04T06:20:19.888Z,3.50
2022-12-04T06:22:47.174Z,3.60
2022-12-04T06:25:14.507Z,3.57
2022-12-04T06:27:42.780Z,3.00
2022-12-04T06:30:10.562Z,3.20
2022-12-04T06:32:37.961Z,3.43
2022-12-04T06:35:07.108Z,3.73
2022-12-04T06:37:34.508Z,3.63
2022-12-04T06:40:01.769Z,4.00
2022-12-04T06:42:28.996Z,3.87
2022-12-04T06:44:56.222Z,3.03
2022-12-04T06:47:23.421Z,3.37
2022-12-04T06:49:51.731Z,3.20
2022-12-04T06:52:19.066Z,3.40
2022-12-04T06:54:46.371Z,3.33
2022-12-04T06:57:13.910Z,3.50
2022-12-04T06:59:41.418Z,3.60
2022-12-04T07:02:09.993Z,3.37
2022-12-04T07:04:37.459Z,3.53
2022-12-04T07:07:04.709Z,3.43
2022-12-04T07:09:31.937Z,3.70
2022-12-04T07:11:59.245Z,3.53
2022-12-04T07:14:26.604Z,3.80
2022-12-04T07:16:53.968Z,3.70
2022-12-04T07:19:21.259Z,3.47
2022-12-04T07:21:48.432Z,3.50
2022-12-04T07:24:17.336Z,3.50
2022-12-04T07:26:45.329Z,3.40
2022-12-04T07:29:12.623Z,3.40
2022-12-04T07:31:40.083Z,3.90
2022-12-04T07:34:07.550Z,3.50
2022-12-04T07:36:34.752Z,3.43
2022-12-04T07:39:02.103Z,4.40
2022-12-04T07:41:29.341Z,3.40
2022-12-04T07:43:56.513Z,3.73
2022-12-04T07:46:26.834Z,2.40
2022-12-04T07:48:59.325Z,2.40
2022-12-04T07:51:29.078Z,2.70
2022-12-04T07:54:03.583Z,2.70
2022-12-04T07:56:31.533Z,2.40
2022-12-04T07:59:00.379Z,2.00
2022-12-04T08:01:28.177Z,2.00
2022-12-04T08:03:57.623Z,2.17
2022-12-04T08:06:26.939Z,2.23
2022-12-04T08:08:54.355Z,1.73
2022-12-04T08:11:24.632Z,2.13
2022-12-04T08:14:00.425Z,1.57
2022-12-04T08:16:29.478Z,1.73
2022-12-04T08:18:57.143Z,1.80
2022-12-04T08:21:27.945Z,2.20
2022-12-04T08:23:56.971Z,2.00
2022-12-04T08:26:26.149Z,2.13
2022-12-04T08:28:55.060Z,2.30
2022-12-04T08:31:26.177Z,2.43
2022-12-04T08:33:55.418Z,2.57
2022-12-04T08:36:23.442Z,2.60
2022-12-04T08:38:51.148Z,2.60
2022-12-04T08:41:21.595Z,2.47
2022-12-04T08:43:49.126Z,3.70
2022-12-04T08:46:18.094Z,2.80
2022-12-04T08:48:45.839Z,2.70
2022-12-04T08:51:19.734Z,2.47
2022-12-04T08:53:47.193Z,3.17
2022-12-04T08:56:14.744Z,2.67
2022-12-04T08:58:42.029Z,3.00
2022-12-04T09:01:14.887Z,2.73
2022-12-04T09:03:42.482Z,2.37
2022-12-04T09:06:12.292Z,2.30
2022-12-04T09:08:39.593Z,2.20
2022-12-04T09:11:10.862Z,1.90
2022-12-04T09:13:39.769Z,2.30
2022-12-04T09:16:13.083Z,2.20
2022-12-04T09:18:41.283Z,2.00
2022-12-04T09:21:11.352Z,2.13
2022-12-04T09:23:39.356Z,2.17
2022-12-04T09:26:18.695Z,2.03
2022-12-04T09:28:47.489Z,2.10
2022-12-04T09:31:15.852Z,2.07
2022-12-04T09:33:43.326Z,2.30
2022-12-04T09:36:16.245Z,2.03
2022-12-04T09:38:48.109Z,2.10
2022-12-04T09:41:40.603Z,2.10
2022-12-04T09:44:16.491Z,2.00
2022-12-04T09:46:52.524Z,2.50
2022-12-04T09:49:43.423Z,2.30
2022-12-04T09:52:22.064Z,2.73
2022-12-04T09:54:52.014Z,2.20
2022-12-04T09:57:48.542Z,2.20
2022-12-04T10:00:18.541Z,2.10
2022-12-04T10:02:56.300Z,2.20
2022-12-04T10:06:03.271Z,2.20
2022-12-04T10:08:35.755Z,2.30
2022-12-04T10:12:00.929Z,2.30
2022-12-04T10:14:30.897Z,2.13
2022-12-04T10:17:06.894Z,2.13
2022-12-04T10:19:56.019Z,2.27
2022-12-04T10:22:30.885Z,2.10
2022-12-04T10:25:36.959Z,1.90
2022-12-04T10:28:31.132Z,2.30
2022-12-04T10:31:03.256Z,2.33
2022-12-04T10:33:52.578Z,1.80
2022-12-04T10:36:28.403Z,2.13
2022-12-04T10:39:04.983Z,2.13
2022-12-04T10:42:02.396Z,1.90
2022-12-04T10:44:29.712Z,2.00
2022-12-04T10:47:00.849Z,2.00
2022-12-04T10:49:31.030Z,2.00
2022-12-04T10:51:58.657Z,2.10
2022-12-04T10:54:45.090Z,2.00
2022-12-04T10:57:14.266Z,1.97
2022-12-04T10:59:56.813Z,2.10
2022-12-04T11:02:43.304Z,2.13
2022-12-04T11:05:55.554Z,2.10
2022-12-04T11:08:53.708Z,1.80
2022-12-04T11:11:33.462Z,1.97
2022-12-04T11:14:16.188Z,1.70
2022-12-04T11:16:46.541Z,2.20
2022-12-04T11:19:27.241Z,2.20
2022-12-04T11:21:57.326Z,1.90
2022-12-04T11:24:34.662Z,1.77
2022-12-04T11:27:04.700Z,1.50
2022-12-04T11:29:46.440Z,2.00
2022-12-04T11:32:28.926Z,1.50
2022-12-04T11:35:01.157Z,2.30
2022-12-04T11:37:32.733Z,2.60
2022-12-04T11:40:02.216Z,2.53
2022-12-04T11:42:31.535Z,2.40
2022-12-04T11:45:01.384Z,2.43
2022-12-04T11:47:31.641Z,2.30
2022-12-04T11:50:01.666Z,1.97
2022-12-04T11:52:48.518Z,2.03
2022-12-04T11:55:28.347Z,1.73
2022-12-04T11:58:20.297Z,1.90
2022-12-04T12:01:24.794Z,1.77
2022-12-04T12:04:19.648Z,1.67
2022-12-04T12:06:50.116Z,1.50
2022-12-04T12:09:38.469Z,1.90
2022-12-04T12:12:22.593Z,1.77
2022-12-04T12:15:19.225Z,1.80
2022-12-04T12:18:11.188Z,1.77
2022-12-04T12:21:03.576Z,1.80
2022-12-04T12:23:45.826Z,1.80
2022-12-04T12:26:15.620Z,1.70
2022-12-04T12:29:04.617Z,1.70
2022-12-04T12:31:53.708Z,1.60
2022-12-04T12:34:50.688Z,1.70
2022-12-04T12:37:46.347Z,1.60
2022-12-04T12:40:25.883Z,1.50
2022-12-04T12:43:01.393Z,1.60
2022-12-04T12:45:37.434Z,1.70
2022-12-04T12:48:30.854Z,1.57
2022-12-04T12:51:30.303Z,1.70
2022-12-04T12:54:09.580Z,1.50
2022-12-04T12:56:47.814Z,1.60
2022-12-04T12:59:22.537Z,1.50
2022-12-04T13:02:00.918Z,1.53
2022-12-04T13:04:50.655Z,1.60
2022-12-04T13:07:17.865Z,1.50
2022-12-04T13:10:02.333Z,1.60
2022-12-04T13:12:32.216Z,1.60
2022-12-04T13:14:59.411Z,1.60
2022-12-04T13:17:29.817Z,1.67
2022-12-04T13:19:59.658Z,1.80
2022-12-04T13:22:42.541Z,1.70
2022-12-04T13:25:28.398Z,1.57
2022-12-04T13:28:29.926Z,1.83
2022-12-04T13:31:10.555Z,1.60
2022-12-04T13:33:49.812Z,1.70
2022-12-04T13:36:38.878Z,1.53
2022-12-04T13:39:29.141Z,1.90
2022-12-04T13:42:00.237Z,1.90
2022-12-04T13:44:28.640Z,2.00
2022-12-04T13:47:03.895Z,2.10
2022-12-04T13:49:46.128Z,1.97
2022-12-04T13:52:36.046Z,2.50
2022-12-04T13:55:03.357Z,1.90
2022-12-04T13:57:30.608Z,1.90
2022-12-04T14:00:33.831Z,1.90
2022-12-04T14:03:24.407Z,2.20
2022-12-04T14:05:51.847Z,1.93
2022-12-04T14:08:25.511Z,2.40
2022-12-04T14:11:01.429Z,2.60
2022-12-04T14:13:41.701Z,2.07
2022-12-04T14:16:18.550Z,2.30
2022-12-04T14:19:01.797Z,2.10
2022-12-04T14:21:40.778Z,2.37
2022-12-04T14:24:28.797Z,2.10
2022-12-04T14:27:11.137Z,2.40
2022-12-04T14:29:52.863Z,2.33
2022-12-04T14:32:26.573Z,2.40
2022-12-04T14:34:54.850Z,2.30
2022-12-04T14:37:35.276Z,2.70
2022-12-04T14:40:07.606Z,2.50
2022-12-04T14:42:38.819Z,2.30
2022-12-04T14:45:25.937Z,2.17
2022-12-04T14:47:53.520Z,2.37
2022-12-04T14:50:58.559Z,2.53
2022-12-04T14:53:54.987Z,2.17
2022-12-04T14:56:50.276Z,2.30
2022-12-04T14:59:23.075Z,2.27
2022-12-04T15:01:52.379Z,2.40
2022-12-04T15:04:27.952Z,2.50
2022-12-04T15:07:00.345Z,2.57
2022-12-04T15:09:47.790Z,2.97
2022-12-04T15:12:33.645Z,2.90
2022-12-04T15:15:19.800Z,2.47
2022-12-04T15:18:17.072Z,2.97
2022-12-04T15:20:50.575Z,3.03
2022-12-04T15:23:22.121Z,3.03
2022-12-04T15:25:53.603Z,2.70
2022-12-04T15:28:31.951Z,3.03
2022-12-04T15:31:02.038Z,2.50
2022-12-04T15:33:34.586Z,2.70
2022-12-04T15:36:29.286Z,2.70
2022-12-04T15:38:57.158Z,3.00
2022-12-04T15:41:38.003Z,3.00
2022-12-04T15:44:26.925Z,3.07
2022-12-04T15:46:57.092Z,3.40
2022-12-04T15:49:32.460Z,2.93
2022-12-04T15:52:07.848Z,2.77
2022-12-04T15:54:36.562Z,3.10
2022-12-04T15:57:24.715Z,3.20
2022-12-04T15:59:53.811Z,2.90
2022-12-04T16:02:36.396Z,2.90
2022-12-04T16:05:35.812Z,3.30
2022-12-04T16:08:30.454Z,3.17
2022-12-04T16:11:22.971Z,2.93
2022-12-04T16:14:03.348Z,3.57
2022-12-04T16:16:30.755Z,3.40
2022-12-04T16:18:58.227Z,3.50
2022-12-04T16:21:31.617Z,3.27
2022-12-04T16:24:06.138Z,3.17
2022-12-04T16:26:33.888Z,3.53
2022-12-04T16:29:01.234Z,3.30
2022-12-04T16:31:28.687Z,3.93
2022-12-04T16:33:56.312Z,3.70
2022-12-04T16:36:23.803Z,3.47
2022-12-04T16:38:51.561Z,3.53
2022-12-04T16:41:20.332Z,3.47
2022-12-04T16:43:55.767Z,3.97
2022-12-04T16:46:25.225Z,4.03
2022-12-04T16:48:52.955Z,4.07
2022-12-04T16:51:25.654Z,3.73
2022-12-04T16:53:54.014Z,3.83
2022-12-04T16:56:22.243Z,4.07
2022-12-04T16:58:50.178Z,4.10
2022-12-04T17:01:33.752Z,3.87
2022-12-04T17:04:01.360Z,3.77
2022-12-04T17:06:28.684Z,3.90
2022-12-04T17:08:56.189Z,3.87
2022-12-04T17:11:23.548Z,3.90
2022-12-04T17:13:51.064Z,3.80
2022-12-04T17:16:19.907Z,3.63
2022-12-04T17:18:47.449Z,3.40
2022-12-04T17:21:15.301Z,3.23
2022-12-04T17:23:43.282Z,3.97
2022-12-04T17:26:14.816Z,3.43
2022-12-04T17:28:42.703Z,3.83
2022-12-04T17:31:21.719Z,3.40
2022-12-04T17:33:49.488Z,3.37
2022-12-04T17:36:22.533Z,3.20
2022-12-04T17:38:54.723Z,3.20
2022-12-04T17:41:21.979Z,3.00
2022-12-04T17:43:49.726Z,3.30
2022-12-04T17:46:23.031Z,3.17
2022-12-04T17:48:50.910Z,3.50
2022-12-04T17:51:20.866Z,3.60
2022-12-04T17:53:49.027Z,3.60
2022-12-04T17:56:19.784Z,3.23
2022-12-04T17:58:47.779Z,3.77
2022-12-04T18:01:21.665Z,3.17
2022-12-04T18:03:54.093Z,3.17
2022-12-04T18:06:30.285Z,3.80
2022-12-04T18:08:58.488Z,3.00
2022-12-04T18:11:28.826Z,3.27
2022-12-04T18:13:59.321Z,3.20
2022-12-04T18:16:28.712Z,3.53
2022-12-04T18:18:57.576Z,3.80
2022-12-04T18:21:24.879Z,3.03
2022-12-04T18:23:52.865Z,3.30
2022-12-04T18:26:22.519Z,3.20
2022-12-04T18:28:52.015Z,3.10
2022-12-04T18:31:20.719Z,2.97
2022-12-04T18:33:48.411Z,3.10
2022-12-04T18:36:24.611Z,3.10
2022-12-04T18:39:04.104Z,2.93
2022-12-04T18:41:32.340Z,2.80
2022-12-04T18:43:59.600Z,2.87
2022-12-04T18:46:27.096Z,3.13
2022-12-04T18:48:55.952Z,2.90
2022-12-04T18:51:39.727Z,2.93
2022-12-04T18:54:15.620Z,2.63
2022-12-04T18:56:43.710Z,3.93
2022-12-04T18:59:19.985Z,2.83
2022-12-04T19:01:47.497Z,2.73
2022-12-04T19:04:17.521Z,3.00
2022-12-04T19:06:47.609Z,2.80
2022-12-04T19:09:18.091Z,3.00
2022-12-04T19:11:46.288Z,3.10
2022-12-04T19:14:22.785Z,2.80
2022-12-04T19:16:51.807Z,2.70
2022-12-04T19:19:19.313Z,2.63
2022-12-04T19:21:46.815Z,2.93
2022-12-04T19:24:14.241Z,2.67
2022-12-04T19:26:42.064Z,2.67
2022-12-04T19:29:13.914Z,2.47
2022-12-04T19:31:42.217Z,2.70
2022-12-04T19:34:09.814Z,2.70
2022-12-04T19:36:37.177Z,2.77
2022-12-04T19:39:06.626Z,2.87
2022-12-04T19:41:35.385Z,2.87
2022-12-04T19:44:14.650Z,2.70
2022-12-04T19:46:50.972Z,3.00
2022-12-04T19:49:18.768Z,3.03
2022-12-04T19:51:47.821Z,2.70
2022-12-04T19:54:15.728Z,2.80
2022-12-04T19:56:51.136Z,2.50
2022-12-04T19:59:20.548Z,2.53
2022-12-04T20:01:48.390Z,2.80
2022-12-04T20:04:15.840Z,2.63
2022-12-04T20:06:45.844Z,2.97
2022-12-04T20:09:18.074Z,2.80
2022-12-04T20:11:45.786Z,2.83
2022-12-04T20:14:13.126Z,2.57
2022-12-04T20:16:41.447Z,3.00
2022-12-04T20:19:15.255Z,3.43
2022-12-04T20:21:43.837Z,3.40
2022-12-04T20:24:14.193Z,3.13
2022-12-04T20:26:43.939Z,2.53
2022-12-04T20:29:14.314Z,2.90
2022-12-04T20:31:44.540Z,2.90
2022-12-04T20:34:17.919Z,3.03
2022-12-04T20:36:47.383Z,3.03
2022-12-04T20:39:17.473Z,3.10
2022-12-04T20:41:47.020Z,2.97
2022-12-04T20:44:18.188Z,3.10
2022-12-04T20:46:48.275Z,3.10
2022-12-04T20:49:21.784Z,3.00
2022-12-04T20:51:51.656Z,2.60
2022-12-04T20:54:21.530Z,2.90
2022-12-04T20:56:50.507Z,3.23
2022-12-04T20:59:19.645Z,2.70
2022-12-04T21:01:49.356Z,2.87
2022-12-04T21:04:18.151Z,2.60
2022-12-04T21:06:47.150Z,2.70
2022-12-04T21:09:17.634Z,2.77
2022-12-04T21:11:53.429Z,2.50
2022-12-04T21:14:48.780Z,2.30
2022-12-04T21:17:19.015Z,2.23
2022-12-04T21:19:49.460Z,2.07
2022-12-04T21:22:18.677Z,2.97
2022-12-04T21:24:46.071Z,2.70
2022-12-04T21:27:20.426Z,2.77
2022-12-04T21:29:49.112Z,2.83
2022-12-04T21:32:17.131Z,2.67
2022-12-04T21:34:44.440Z,2.73
2022-12-04T21:37:11.697Z,2.90
2022-12-04T21:39:39.412Z,3.20
2022-12-04T21:42:25.463Z,3.03
2022-12-04T21:44:52.701Z,2.63
2022-12-04T21:47:19.948Z,2.73
2022-12-04T21:49:47.830Z,2.40
2022-12-04T21:52:19.236Z,2.53
2022-12-04T21:54:52.793Z,2.20
2022-12-04T21:57:21.192Z,2.80
2022-12-04T21:59:48.829Z,2.03
2022-12-04T22:02:16.396Z,2.43
2022-12-04T22:04:44.325Z,2.10
2022-12-04T22:07:11.803Z,2.70
2022-12-04T22:09:39.734Z,2.50
2022-12-04T22:12:20.218Z,2.70
2022-12-04T22:14:54.555Z,2.53
2022-12-04T22:17:21.762Z,2.43
2022-12-04T22:19:49.025Z,2.73
2022-12-04T22:22:16.272Z,2.77
2022-12-04T22:24:43.553Z,2.80
2022-12-04T22:27:15.005Z,3.00
2022-12-04T22:29:50.253Z,2.47
2022-12-04T22:32:18.563Z,2.87
2022-12-04T22:34:49.058Z,2.80
2022-12-04T22:37:16.464Z,2.43
2022-12-04T22:39:43.832Z,2.50
2022-12-04T22:42:11.049Z,2.90
2022-12-04T22:44:38.263Z,2.57
2022-12-04T22:47:05.622Z,2.40
2022-12-04T22:49:32.862Z,2.73
2022-12-04T22:52:00.123Z,2.60
2022-12-04T22:54:27.315Z,2.40
2022-12-04T22:56:54.700Z,2.57
2022-12-04T22:59:21.820Z,2.70
2022-12-04T23:01:48.971Z,2.80
2022-12-04T23:04:16.358Z,2.40
2022-12-04T23:06:43.498Z,2.60
2022-12-04T23:09:14.708Z,2.40
2022-12-04T23:11:45.997Z,2.27
2022-12-04T23:14:15.134Z,2.23
2022-12-04T23:16:43.140Z,2.37
2022-12-04T23:19:15.694Z,2.60
2022-12-04T23:21:43.632Z,2.53
2022-12-04T23:24:12.189Z,2.27
2022-12-04T23:26:42.669Z,2.47
2022-12-04T23:29:29.780Z,2.30
2022-12-04T23:31:57.837Z,2.80
2022-12-04T23:34:25.304Z,2.30
2022-12-04T23:36:52.705Z,2.23
2022-12-04T23:39:19.995Z,2.47
2022-12-04T23:41:47.320Z,2.67
2022-12-04T23:44:15.294Z,2.47
2022-12-04T23:46:42.615Z,2.60
2022-12-04T23:49:09.886Z,2.50
2022-12-04T23:51:37.383Z,2.50
2022-12-04T23:54:04.679Z,2.70
2022-12-04T23:56:32.778Z,2.70
2022-12-04T23:59:00.331Z,2.33
